Time;durP1;ratioP1;P1;durP2;ratioP2;P2;SDS_P1;SDS_P2;PMS_P1;PMS_P2;Temp;Humidity;BMP_temperature;BMP_pressure;BME280_temperature;BME280_humidity;BME280_pressure;Samples;Min_cycle;Max_cycle;Signal;HPM_P1;HPM_P2
2023/11/11 00:01:30;;;;;;;;;;;;;;;;;;5067219;28;20005;-68
2023/11/11 00:03:56;;;;;;;;;;;;;;;;;;5062098;28;19912;-68
2023/11/11 00:06:22;;;;;;;;;;;;;;;;;;5073542;28;19982;-68
2023/11/11 00:08:48;;;;;;;;;;;;;;;;;;5070985;28;19923;-68
2023/11/11 00:11:14;;;;;;;;;;;;;;;;;;5062648;28;19912;-68
2023/11/11 00:13:40;;;;;;;;;;;;;;;;;;5054165;28;19919;-68
2023/11/11 00:16:05;;;;;;;;;;;;;;;;;;5057794;28;19912;-68
2023/11/11 00:18:32;;;;;;;;;;;;;;;;;;5073394;28;20431;-68
2023/11/11 00:21:00;;;;;;;;;;;;;;;;;;5068067;28;19916;-68
2023/11/11 00:23:26;;;;;;;;;;;;;;;;;;5073060;28;19912;-68
2023/11/11 00:25:52;;;;;;;;;;;;;;;;;;5057451;28;19943;-67
2023/11/11 00:28:18;;;;;;;;;;;;;;;;;;5071881;28;19948;-68
2023/11/11 00:30:45;;;;;;;;;;;;;;;;;;5066320;28;19912;-69
2023/11/11 00:33:11;;;;;;;;;;;;;;;;;;5070159;28;19913;-68
2023/11/11 00:35:37;;;;;;;;;;;;;;;;;;5073172;28;20330;-68
2023/11/11 00:38:04;;;;;;;;;;;;;;;;;;5056993;28;20472;-68
2023/11/11 00:40:30;;;;;;;;;;;;;;;;;;5073428;28;19917;-68
2023/11/11 00:42:56;;;;;;;;;;;;;;;;;;5066919;28;19917;-68
2023/11/11 00:45:24;;;;;;;;;;;;;;;;;;5066017;28;19954;-68
2023/11/11 00:47:51;;;;;;;;;;;;;;;;;;5072034;28;20434;-67
2023/11/11 00:50:16;;;;;;;;;;;;;;;;;;5073540;28;19908;-68
2023/11/11 00:52:42;;;;;;;;;;;;;;;;;;5073340;28;19931;-68
2023/11/11 00:55:08;;;;;;;;;;;;;;;;;;5072724;28;20324;-68
2023/11/11 00:57:35;;;;;;;;;;;;;;;;;;5073305;28;19922;-66
2023/11/11 01:00:01;;;;;;;;;;;;;;;;;;5068142;28;20058;-66
2023/11/11 01:02:26;;;;;;;;;;;;;;;;;;5073457;28;20344;-66
2023/11/11 01:04:52;;;;;;;;;;;;;;;;;;5073042;28;20003;-66
2023/11/11 01:07:18;;;;;;;;;;;;;;;;;;5073027;28;20007;-66
2023/11/11 01:09:45;;;;;;;;;;;;;;;;;;5072718;28;20392;-66
2023/11/11 01:12:11;;;;;;;;;;;;;;;;;;5066604;28;19912;-71
2023/11/11 01:14:36;;;;;;;;;;;;;;;;;;5065903;28;19927;-71
2023/11/11 01:17:05;;;;;;;;;;;;;;;;;;5078213;28;19944;-70
2023/11/11 01:19:31;;;;;;;;;;;;;;;;;;5072868;28;19990;-71
2023/11/11 01:21:57;;;;;;;;;;;;;;;;;;5071189;28;20004;-72
2023/11/11 01:24:23;;;;;;;;;;;;;;;;;;5071969;28;20360;-69
2023/11/11 01:26:49;;;;;;;;;;;;;;;;;;5071847;28;19935;-68
2023/11/11 01:29:15;;;;;;;;;;;;;;;;;;5072583;28;20430;-68
2023/11/11 01:31:41;;;;;;;;;;;;;;;;;;5072540;28;19912;-68
2023/11/11 01:34:07;;;;;;;;;;;;;;;;;;5063399;28;19912;-68
2023/11/11 01:36:33;;;;;;;;;;;;;;;;;;5070156;28;20419;-68
2023/11/11 01:38:59;;;;;;;;;;;;;;;;;;5062411;28;20396;-68
2023/11/11 01:41:24;;;;;;;;;;;;;;;;;;5063855;28;19923;-69
2023/11/11 01:43:50;;;;;;;;;;;;;;;;;;5072792;28;20291;-68
2023/11/11 01:46:16;;;;;;;;;;;;;;;;;;5062305;28;19989;-68
2023/11/11 01:48:44;;;;;;;;;;;;;;;;;;5061081;28;19912;-68
2023/11/11 01:51:10;;;;;;;;;;;;;;;;;;5057083;28;20272;-68
2023/11/11 01:53:36;;;;;;;;;;;;;;;;;;5058209;28;19920;-68
2023/11/11 01:56:03;;;;;;;;;;;;;;;;;;5059804;28;19928;-67
2023/11/11 01:58:31;;;;;;;;;;;;;;;;;;5054569;28;19918;-68
2023/11/11 02:00:57;;;;;;;;;;;;;;;;;;5071873;28;19935;-71
2023/11/11 02:03:23;;;;;;;;;;;;;;;;;;5072471;28;20376;-72
2023/11/11 02:05:49;;;;;;;;;;;;;;;;;;5060338;28;19958;-72
2023/11/11 02:08:15;;;;;;;;;;;;;;;;;;5071859;28;19962;-71
2023/11/11 02:10:41;;;;;;;;;;;;;;;;;;5054584;28;19923;-71
2023/11/11 02:13:07;;;;;;;;;;;;;;;;;;5069567;28;19920;-72
2023/11/11 02:15:33;;;;;;;;;;;;;;;;;;5063702;28;19917;-71
2023/11/11 02:17:59;;;;;;;;;;;;;;;;;;5060974;28;19916;-71
2023/11/11 02:20:25;;;;;;;;;;;;;;;;;;5071602;28;20328;-72
2023/11/11 02:22:51;;;;;;;;;;;;;;;;;;5067240;28;20007;-72
2023/11/11 02:25:17;;;;;;;;;;;;;;;;;;5074347;28;19916;-74
2023/11/11 02:27:45;;;;;;;;;;;;;;;;;;5088056;28;19919;-71
2023/11/11 02:30:12;;;;;;;;;;;;;;;;;;5077041;28;19912;-72
2023/11/11 02:32:37;;;;;;;;;;;;;;;;;;5075862;28;20018;-72
2023/11/11 02:35:04;;;;;;;;;;;;;;;;;;5075661;28;20376;-72
2023/11/11 02:37:30;;;;;;;;;;;;;;;;;;5071510;28;19974;-73
2023/11/11 02:39:56;;;;;;;;;;;;;;;;;;5075625;28;19970;-72
2023/11/11 02:42:21;;;;;;;;;;;;;;;;;;5083312;28;20393;-72
2023/11/11 02:44:47;;;;;;;;;;;;;;;;;;5074844;28;20330;-71
2023/11/11 02:47:14;;;;;;;;;;;;;;;;;;5075712;28;20314;-72
2023/11/11 02:49:40;;;;;;;;;;;;;;;;;;5061715;28;19920;-72
2023/11/11 02:52:06;;;;;;;;;;;;;;;;;;5065637;28;19913;-72
2023/11/11 02:54:32;;;;;;;;;;;;;;;;;;5074175;28;20411;-72
2023/11/11 02:56:58;;;;;;;;;;;;;;;;;;5075504;28;19938;-73
2023/11/11 02:59:24;;;;;;;;;;;;;;;;;;5075016;28;20273;-73
2023/11/11 03:01:52;;;;;;;;;;;;;;;;;;5075246;28;19919;-73
2023/11/11 03:04:19;;;;;;;;;;;;;;;;;;5075270;28;19913;-73
2023/11/11 03:06:46;;;;;;;;;;;;;;;;;;5074899;28;19916;-72
2023/11/11 03:09:12;;;;;;;;;;;;;;;;;;5074903;28;20373;-73
2023/11/11 03:11:37;;;;;;;;;;;;;;;;;;5085836;28;19918;-72
2023/11/11 03:14:03;;;;;;;;;;;;;;;;;;5075494;28;19916;-72
2023/11/11 03:16:29;;;;;;;;;;;;;;;;;;5075043;28;20003;-72
2023/11/11 03:18:55;;;;;;;;;;;;;;;;;;5071240;28;20369;-71
2023/11/11 03:21:21;;;;;;;;;;;;;;;;;;5060134;28;19922;-73
2023/11/11 03:23:47;;;;;;;;;;;;;;;;;;5074944;28;19974;-72
2023/11/11 03:26:13;;;;;;;;;;;;;;;;;;5073002;28;19964;-72
2023/11/11 03:28:39;;;;;;;;;;;;;;;;;;5074657;28;20325;-72
2023/11/11 03:31:05;;;;;;;;;;;;;;;;;;5074526;28;20351;-72
2023/11/11 03:33:31;;;;;;;;;;;;;;;;;;5074746;28;19995;-72
2023/11/11 03:35:57;;;;;;;;;;;;;;;;;;5072668;28;19912;-72
2023/11/11 03:38:23;;;;;;;;;;;;;;;;;;5072479;28;19950;-72
2023/11/11 03:40:49;;;;;;;;;;;;;;;;;;5070976;28;19956;-73
2023/11/11 03:43:15;;;;;;;;;;;;;;;;;;5055504;28;19912;-73
2023/11/11 03:45:41;;;;;;;;;;;;;;;;;;5061949;28;19920;-73
2023/11/11 03:48:06;;;;;;;;;;;;;;;;;;5072204;28;20342;-69
2023/11/11 03:50:32;;;;;;;;;;;;;;;;;;5065765;28;19957;-73
2023/11/11 03:52:58;;;;;;;;;;;;;;;;;;5074568;28;20011;-73
2023/11/11 03:55:24;;;;;;;;;;;;;;;;;;5073892;28;19913;-71
2023/11/11 03:57:50;;;;;;;;;;;;;;;;;;5044758;28;19913;-73
2023/11/11 04:00:19;;;;;;;;;;;;;;;;;;5072738;28;19969;-73
2023/11/11 04:02:45;;;;;;;;;;;;;;;;;;5070031;28;19924;-73
2023/11/11 04:05:11;;;;;;;;;;;;;;;;;;5054317;28;20365;-74
2023/11/11 04:07:37;;;;;;;;;;;;;;;;;;5071413;28;19938;-73
2023/11/11 04:10:03;;;;;;;;;;;;;;;;;;5063999;28;19919;-73
2023/11/11 04:12:29;;;;;;;;;;;;;;;;;;5073466;28;19912;-72
2023/11/11 04:14:55;;;;;;;;;;;;;;;;;;5084065;28;20405;-72
2023/11/11 04:17:22;;;;;;;;;;;;;;;;;;5066675;28;19998;-72
2023/11/11 04:19:48;;;;;;;;;;;;;;;;;;5071921;28;19916;-72
2023/11/11 04:22:13;;;;;;;;;;;;;;;;;;5076336;28;19917;-73
2023/11/11 04:24:40;;;;;;;;;;;;;;;;;;5055246;28;20004;-70
2023/11/11 04:27:06;;;;;;;;;;;;;;;;;;5063682;28;20300;-70
2023/11/11 04:29:32;;;;;;;;;;;;;;;;;;5071321;28;19947;-70
2023/11/11 04:31:58;;;;;;;;;;;;;;;;;;5073381;28;20292;-70
2023/11/11 04:34:26;;;;;;;;;;;;;;;;;;5072806;28;19958;-70
2023/11/11 04:36:52;;;;;;;;;;;;;;;;;;5071216;28;19919;-70
2023/11/11 04:39:18;;;;;;;;;;;;;;;;;;5077536;28;19923;-70
2023/11/11 04:41:44;;;;;;;;;;;;;;;;;;5063956;28;19959;-70
2023/11/11 04:44:10;;;;;;;;;;;;;;;;;;5070409;28;19970;-69
2023/11/11 04:46:36;;;;;;;;;;;;;;;;;;5063856;28;20008;-70
2023/11/11 04:49:01;;;;;;;;;;;;;;;;;;5068368;28;19959;-69
2023/11/11 04:51:27;;;;;;;;;;;;;;;;;;5069385;28;20011;-70
2023/11/11 04:53:53;;;;;;;;;;;;;;;;;;5060317;28;19923;-70
2023/11/11 04:56:19;;;;;;;;;;;;;;;;;;5079378;28;19916;-69
2023/11/11 04:58:45;;;;;;;;;;;;;;;;;;5072911;28;20002;-70
2023/11/11 05:01:12;;;;;;;;;;;;;;;;;;5069843;28;20015;-69
2023/11/11 05:03:39;;;;;;;;;;;;;;;;;;5070724;28;20378;-69
2023/11/11 05:06:06;;;;;;;;;;;;;;;;;;5081162;28;20053;-69
2023/11/11 05:08:31;;;;;;;;;;;;;;;;;;5075408;28;20339;-69
2023/11/11 05:10:57;;;;;;;;;;;;;;;;;;5078204;28;20007;-69
2023/11/11 05:13:24;;;;;;;;;;;;;;;;;;5077733;28;19948;-70
2023/11/11 05:15:59;;;;;;;;;;;;;;;;;;5075476;28;19998;-69
2023/11/11 05:18:25;;;;;;;;;;;;;;;;;;5063998;28;20006;-67
2023/11/11 05:20:51;;;;;;;;;;;;;;;;;;5074981;28;20003;-69
2023/11/11 05:23:17;;;;;;;;;;;;;;;;;;5065106;28;20363;-69
2023/11/11 05:25:43;;;;;;;;;;;;;;;;;;5071499;28;19927;-69
2023/11/11 05:28:09;;;;;;;;;;;;;;;;;;5076038;28;19912;-69
2023/11/11 05:30:35;;;;;;;;;;;;;;;;;;5067267;28;19925;-69
2023/11/11 05:33:01;;;;;;;;;;;;;;;;;;5082189;28;19996;-68
2023/11/11 05:35:27;;;;;;;;;;;;;;;;;;5071605;28;19946;-67
2023/11/11 05:37:56;;;;;;;;;;;;;;;;;;5074637;28;20306;-67
2023/11/11 05:40:22;;;;;;;;;;;;;;;;;;5074164;28;19916;-68
2023/11/11 05:42:48;;;;;;;;;;;;;;;;;;5076021;28;19912;-68
2023/11/11 05:45:15;;;;;;;;;;;;;;;;;;5077349;28;19959;-67
2023/11/11 05:47:42;;;;;;;;;;;;;;;;;;5070988;28;20011;-68
2023/11/11 05:50:08;;;;;;;;;;;;;;;;;;5048662;28;19912;-67
2023/11/11 05:52:34;;;;;;;;;;;;;;;;;;5075153;28;19954;-67
2023/11/11 05:55:00;;;;;;;;;;;;;;;;;;5074298;28;19947;-69
2023/11/11 05:57:26;;;;;;;;;;;;;;;;;;5064061;28;19923;-68
2023/11/11 05:59:52;;;;;;;;;;;;;;;;;;5078957;28;19916;-67
2023/11/11 06:02:18;;;;;;;;;;;;;;;;;;5066665;28;20265;-71
2023/11/11 06:04:45;;;;;;;;;;;;;;;;;;5060003;28;19920;-67
2023/11/11 06:07:12;;;;;;;;;;;;;;;;;;5081108;28;19908;-66
2023/11/11 06:09:39;;;;;;;;;;;;;;;;;;5085227;28;20393;-67
2023/11/11 06:12:05;;;;;;;;;;;;;;;;;;5082498;28;19969;-67
2023/11/11 06:14:31;;;;;;;;;;;;;;;;;;5093356;28;19960;-67
2023/11/11 06:16:57;;;;;;;;;;;;;;;;;;5074451;28;20391;-67
2023/11/11 06:19:24;;;;;;;;;;;;;;;;;;5081986;28;20007;-67
2023/11/11 06:21:50;;;;;;;;;;;;;;;;;;5075983;28;19921;-67
2023/11/11 06:24:17;;;;;;;;;;;;;;;;;;5091562;28;19959;-67
2023/11/11 06:26:43;;;;;;;;;;;;;;;;;;5072851;28;19970;-68
2023/11/11 06:29:09;;;;;;;;;;;;;;;;;;5073752;28;20392;-67
2023/11/11 06:31:35;;;;;;;;;;;;;;;;;;5074388;28;19920;-69
2023/11/11 06:34:01;;;;;;;;;;;;;;;;;;5074500;28;19928;-67
2023/11/11 06:36:27;;;;;;;;;;;;;;;;;;5075892;28;19908;-67
2023/11/11 06:38:53;;;;;;;;;;;;;;;;;;5087889;28;20384;-67
2023/11/11 06:41:20;;;;;;;;;;;;;;;;;;5085869;28;19914;-67
2023/11/11 06:43:46;;;;;;;;;;;;;;;;;;5083269;28;19957;-70
2023/11/11 06:46:13;;;;;;;;;;;;;;;;;;5095122;28;19908;-70
2023/11/11 06:48:39;;;;;;;;;;;;;;;;;;5075849;28;20260;-70
2023/11/11 06:51:04;;;;;;;;;;;;;;;;;;5095490;28;19923;-69
2023/11/11 06:53:30;;;;;;;;;;;;;;;;;;5087045;28;20372;-71
2023/11/11 06:55:56;;;;;;;;;;;;;;;;;;5079132;28;20495;-69
2023/11/11 06:58:22;;;;;;;;;;;;;;;;;;5079152;28;19908;-68
2023/11/11 07:00:48;;;;;;;;;;;;;;;;;;5094693;28;19923;-68
2023/11/11 07:03:14;;;;;;;;;;;;;;;;;;5093214;28;19912;-68
2023/11/11 07:05:40;;;;;;;;;;;;;;;;;;5094864;28;20023;-70
2023/11/11 07:08:06;;;;;;;;;;;;;;;;;;5075404;28;19999;-69
2023/11/11 07:10:33;;;;;;;;;;;;;;;;;;5081681;28;19919;-70
2023/11/11 07:13:00;;;;;;;;;;;;;;;;;;5079862;28;19912;-70
2023/11/11 07:15:27;;;;;;;;;;;;;;;;;;5082266;28;19917;-69
2023/11/11 07:17:53;;;;;;;;;;;;;;;;;;5087988;28;19912;-68
2023/11/11 07:20:21;;;;;;;;;;;;;;;;;;5090337;28;20402;-69
2023/11/11 07:22:48;;;;;;;;;;;;;;;;;;5086464;28;19951;-68
2023/11/11 07:25:14;;;;;;;;;;;;;;;;;;5078674;28;20030;-68
2023/11/11 07:27:40;;;;;;;;;;;;;;;;;;5083650;28;19986;-70
2023/11/11 07:30:09;;;;;;;;;;;;;;;;;;5073802;28;20002;-69
2023/11/11 07:32:35;;;;;;;;;;;;;;;;;;5072119;28;19916;-68
2023/11/11 07:35:02;;;;;;;;;;;;;;;;;;5079382;28;19909;-69
2023/11/11 07:37:28;;;;;;;;;;;;;;;;;;5077624;28;20003;-69
2023/11/11 07:39:55;;;;;;;;;;;;;;;;;;5085197;28;20006;-70
2023/11/11 07:42:22;;;;;;;;;;;;;;;;;;5073225;28;20007;-69
2023/11/11 07:44:47;;;;;;;;;;;;;;;;;;5063332;28;20391;-70
2023/11/11 07:47:15;;;;;;;;;;;;;;;;;;5075248;28;19915;-70
2023/11/11 07:49:43;;;;;;;;;;;;;;;;;;5071941;28;19935;-70
2023/11/11 07:52:09;;;;;;;;;;;;;;;;;;5063487;28;19959;-70
2023/11/11 07:54:35;;;;;;;;;;;;;;;;;;5050801;28;20701;-70
2023/11/11 07:57:02;;;;;;;;;;;;;;;;;;5074314;28;19912;-69
2023/11/11 07:59:29;;;;;;;;;;;;;;;;;;5069228;28;19928;-70
2023/11/11 08:01:55;;;;;;;;;;;;;;;;;;5074949;28;19912;-70
2023/11/11 08:04:21;;;;;;;;;;;;;;;;;;5065278;28;19913;-70
2023/11/11 08:06:47;;;;;;;;;;;;;;;;;;5079295;28;19932;-70
2023/11/11 08:09:16;;;;;;;;;;;;;;;;;;5068043;28;19916;-70
2023/11/11 08:11:42;;;;;;;;;;;;;;;;;;5080181;28;19936;-70
2023/11/11 08:14:08;;;;;;;;;;;;;;;;;;5068871;28;19918;-69
2023/11/11 08:16:34;;;;;;;;;;;;;;;;;;5071055;28;19913;-70
2023/11/11 08:19:00;;;;;;;;;;;;;;;;;;5075887;28;19963;-70
2023/11/11 08:21:31;;;;;;;;;;;;;;;;;;5055776;28;20296;-69
2023/11/11 08:23:57;;;;;;;;;;;;;;;;;;5074138;28;19931;-69
2023/11/11 08:26:23;;;;;;;;;;;;;;;;;;5072002;28;19960;-69
2023/11/11 08:28:49;;;;;;;;;;;;;;;;;;5081551;28;20402;-69
2023/11/11 08:31:15;;;;;;;;;;;;;;;;;;5079457;28;20011;-69
2023/11/11 08:33:41;;;;;;;;;;;;;;;;;;5075898;28;19912;-69
2023/11/11 08:36:07;;;;;;;;;;;;;;;;;;5076273;28;20016;-70
2023/11/11 08:38:32;;;;;;;;;;;;;;;;;;5071790;28;19950;-69
2023/11/11 08:41:00;;;;;;;;;;;;;;;;;;5089295;28;20364;-70
2023/11/11 08:43:26;;;;;;;;;;;;;;;;;;5086348;28;20018;-69
2023/11/11 08:45:52;;;;;;;;;;;;;;;;;;5071510;28;20388;-69
2023/11/11 08:48:18;;;;;;;;;;;;;;;;;;5068412;28;20003;-67
2023/11/11 08:50:44;;;;;;;;;;;;;;;;;;5084360;28;19956;-67
2023/11/11 08:53:10;;;;;;;;;;;;;;;;;;5076486;28;20403;-67
2023/11/11 08:55:36;;;;;;;;;;;;;;;;;;5067011;28;20015;-68
2023/11/11 08:58:02;;;;;;;;;;;;;;;;;;5074174;28;19948;-67
2023/11/11 09:00:29;;;;;;;;;;;;;;;;;;5074944;28;20229;-67
2023/11/11 09:02:55;;;;;;;;;;;;;;;;;;5072709;28;20431;-67
2023/11/11 09:05:21;;;;;;;;;;;;;;;;;;5085704;28;19912;-67
2023/11/11 09:07:47;;;;;;;;;;;;;;;;;;5077599;28;19971;-67
2023/11/11 09:10:13;;;;;;;;;;;;;;;;;;5071963;28;20328;-67
2023/11/11 09:12:39;;;;;;;;;;;;;;;;;;5063775;28;19959;-67
2023/11/11 09:15:08;;;;;;;;;;;;;;;;;;5071529;28;19977;-67
2023/11/11 09:17:35;;;;;;;;;;;;;;;;;;5066264;28;19919;-68
2023/11/11 09:20:01;;;;;;;;;;;;;;;;;;5073558;28;19963;-67
2023/11/11 09:22:27;;;;;;;;;;;;;;;;;;5068976;28;19956;-67
2023/11/11 09:24:53;;;;;;;;;;;;;;;;;;5079919;28;19912;-67
2023/11/11 09:27:19;;;;;;;;;;;;;;;;;;5069209;28;20016;-67
2023/11/11 09:29:45;;;;;;;;;;;;;;;;;;5073735;28;19952;-67
2023/11/11 09:32:11;;;;;;;;;;;;;;;;;;5084197;28;19998;-67
2023/11/11 09:34:37;;;;;;;;;;;;;;;;;;5082305;28;20007;-67
2023/11/11 09:37:03;;;;;;;;;;;;;;;;;;5065278;28;19991;-67
2023/11/11 09:39:29;;;;;;;;;;;;;;;;;;5064158;28;20320;-67
2023/11/11 09:41:55;;;;;;;;;;;;;;;;;;5070695;28;20197;-67
2023/11/11 09:44:22;;;;;;;;;;;;;;;;;;5073602;28;20334;-67
2023/11/11 09:46:48;;;;;;;;;;;;;;;;;;5063386;28;20330;-67
2023/11/11 09:49:14;;;;;;;;;;;;;;;;;;5078800;28;19962;-67
2023/11/11 09:51:40;;;;;;;;;;;;;;;;;;5074864;28;19956;-67
2023/11/11 09:54:06;;;;;;;;;;;;;;;;;;5071694;28;20011;-67
2023/11/11 09:56:32;;;;;;;;;;;;;;;;;;5072663;28;20429;-67
2023/11/11 09:58:59;;;;;;;;;;;;;;;;;;5070820;28;19912;-67
2023/11/11 10:01:25;;;;;;;;;;;;;;;;;;5082994;28;19912;-67
2023/11/11 10:03:51;;;;;;;;;;;;;;;;;;5074368;28;19919;-68
2023/11/11 10:06:17;;;;;;;;;;;;;;;;;;5070845;28;20384;-67
2023/11/11 10:08:43;;;;;;;;;;;;;;;;;;5073542;28;20275;-67
2023/11/11 10:11:10;;;;;;;;;;;;;;;;;;5087848;28;19909;-67
2023/11/11 10:13:36;;;;;;;;;;;;;;;;;;5068944;28;20013;-67
2023/11/11 10:16:02;;;;;;;;;;;;;;;;;;5071424;28;20411;-67
2023/11/11 10:18:30;;;;;;;;;;;;;;;;;;5088166;28;20113;-68
2023/11/11 10:20:57;;;;;;;;;;;;;;;;;;5072786;28;20338;-67
2023/11/11 10:23:22;;;;;;;;;;;;;;;;;;5071651;28;19920;-67
2023/11/11 10:25:49;;;;;;;;;;;;;;;;;;5081268;28;19921;-67
2023/11/11 10:28:15;;;;;;;;;;;;;;;;;;5082369;28;20368;-67
2023/11/11 10:30:42;;;;;;;;;;;;;;;;;;5088898;28;20053;-67
2023/11/11 10:33:09;;;;;;;;;;;;;;;;;;5077620;28;19908;-67
2023/11/11 10:35:35;;;;;;;;;;;;;;;;;;5081056;28;19908;-67
2023/11/11 10:38:01;;;;;;;;;;;;;;;;;;5083686;28;19916;-67
2023/11/11 10:40:27;;;;;;;;;;;;;;;;;;5070406;28;20412;-67
2023/11/11 10:42:53;;;;;;;;;;;;;;;;;;5060179;28;19983;-67
2023/11/11 10:45:19;;;;;;;;;;;;;;;;;;5088178;28;19912;-68
2023/11/11 10:47:44;;;;;;;;;;;;;;;;;;5085066;28;20000;-67
2023/11/11 10:50:13;;;;;;;;;;;;;;;;;;5076821;28;19912;-68
2023/11/11 10:52:39;;;;;;;;;;;;;;;;;;5089742;28;19924;-67
2023/11/11 10:55:05;;;;;;;;;;;;;;;;;;5083511;28;19955;-67
2023/11/11 10:57:31;;;;;;;;;;;;;;;;;;5086327;28;19960;-67
2023/11/11 10:59:58;;;;;;;;;;;;;;;;;;5082248;28;19970;-67
2023/11/11 11:02:24;;;;;;;;;;;;;;;;;;5063886;28;19908;-67
2023/11/11 11:04:50;;;;;;;;;;;;;;;;;;5079950;28;19913;-67
2023/11/11 11:07:16;;;;;;;;;;;;;;;;;;5081050;28;19912;-67
2023/11/11 11:09:43;;;;;;;;;;;;;;;;;;5087824;28;19955;-67
2023/11/11 11:12:10;;;;;;;;;;;;;;;;;;5075587;28;20367;-67
2023/11/11 11:14:36;;;;;;;;;;;;;;;;;;5081959;28;20324;-67
2023/11/11 11:17:02;;;;;;;;;;;;;;;;;;5084880;28;19920;-67
2023/11/11 11:19:28;;;;;;;;;;;;;;;;;;5093399;28;19912;-67
2023/11/11 11:21:54;;;;;;;;;;;;;;;;;;5094411;28;19965;-67
2023/11/11 11:24:19;;;;;;;;;;;;;;;;;;5076346;28;20429;-68
2023/11/11 11:26:45;;;;;;;;;;;;;;;;;;5080242;28;19928;-68
2023/11/11 11:29:12;;;;;;;;;;;;;;;;;;5086521;28;19931;-68
2023/11/11 11:31:37;;;;;;;;;;;;;;;;;;5094373;28;20221;-68
2023/11/11 11:34:03;;;;;;;;;;;;;;;;;;5080164;28;19943;-69
2023/11/11 11:36:29;;;;;;;;;;;;;;;;;;5083967;28;19918;-68
2023/11/11 11:38:56;;;;;;;;;;;;;;;;;;5083316;28;19916;-68
2023/11/11 11:41:22;;;;;;;;;;;;;;;;;;5093900;28;19919;-68
2023/11/11 11:43:48;;;;;;;;;;;;;;;;;;5084051;28;20004;-68
2023/11/11 11:46:14;;;;;;;;;;;;;;;;;;5093993;28;20382;-68
2023/11/11 11:48:41;;;;;;;;;;;;;;;;;;5081928;28;19912;-68
2023/11/11 11:51:09;;;;;;;;;;;;;;;;;;5089270;28;20360;-68
2023/11/11 11:53:35;;;;;;;;;;;;;;;;;;5062389;28;19982;-69
2023/11/11 11:56:01;;;;;;;;;;;;;;;;;;5072814;28;20007;-69
2023/11/11 11:58:27;;;;;;;;;;;;;;;;;;5085937;28;19912;-68
2023/11/11 12:00:53;;;;;;;;;;;;;;;;;;5076039;28;19916;-70
2023/11/11 12:03:19;;;;;;;;;;;;;;;;;;5082662;28;20029;-68
2023/11/11 12:05:45;;;;;;;;;;;;;;;;;;5084100;28;20000;-68
2023/11/11 12:08:11;;;;;;;;;;;;;;;;;;5078912;28;20344;-68
2023/11/11 12:10:37;;;;;;;;;;;;;;;;;;5086935;28;19912;-69
2023/11/11 12:13:05;;;;;;;;;;;;;;;;;;5068177;28;19916;-68
2023/11/11 12:15:32;;;;;;;;;;;;;;;;;;5093620;28;20378;-68
2023/11/11 12:17:58;;;;;;;;;;;;;;;;;;5082723;28;20298;-68
2023/11/11 12:20:24;;;;;;;;;;;;;;;;;;5082018;28;19920;-68
2023/11/11 12:22:50;;;;;;;;;;;;;;;;;;5057554;28;20000;-68
2023/11/11 12:25:16;;;;;;;;;;;;;;;;;;5060714;28;20287;-68
2023/11/11 12:27:44;;;;;;;;;;;;;;;;;;5086623;28;19919;-67
2023/11/11 12:30:10;;;;;;;;;;;;;;;;;;5083870;28;19937;-68
2023/11/11 12:32:36;;;;;;;;;;;;;;;;;;5079474;28;19912;-68
2023/11/11 12:35:02;;;;;;;;;;;;;;;;;;5082545;28;19935;-67
2023/11/11 12:37:28;;;;;;;;;;;;;;;;;;5077642;28;19944;-68
2023/11/11 12:39:54;;;;;;;;;;;;;;;;;;5078305;28;19960;-67
2023/11/11 12:42:20;;;;;;;;;;;;;;;;;;5070433;28;20354;-67
2023/11/11 12:44:46;;;;;;;;;;;;;;;;;;5092891;28;19955;-67
2023/11/11 12:47:14;;;;;;;;;;;;;;;;;;5074378;28;19977;-67
2023/11/11 12:49:40;;;;;;;;;;;;;;;;;;5087079;28;20360;-68
2023/11/11 12:52:06;;;;;;;;;;;;;;;;;;5090796;28;19991;-67
2023/11/11 12:54:32;;;;;;;;;;;;;;;;;;5092732;28;19951;-67
2023/11/11 12:56:57;;;;;;;;;;;;;;;;;;5088648;28;20365;-67
2023/11/11 12:59:23;;;;;;;;;;;;;;;;;;5083735;28;19920;-67
2023/11/11 13:01:53;;;;;;;;;;;;;;;;;;5079007;28;20470;-68
2023/11/11 13:04:20;;;;;;;;;;;;;;;;;;5075218;28;19919;-67
2023/11/11 13:06:46;;;;;;;;;;;;;;;;;;5072446;28;20298;-67
2023/11/11 13:09:18;;;;;;;;;;;;;;;;;;5082747;28;20368;-67
2023/11/11 13:11:46;;;;;;;;;;;;;;;;;;5081146;28;19967;-67
2023/11/11 13:14:12;;;;;;;;;;;;;;;;;;5064084;28;19947;-67
2023/11/11 13:16:38;;;;;;;;;;;;;;;;;;5061687;28;19963;-67
2023/11/11 13:19:09;;;;;;;;;;;;;;;;;;5074303;28;19965;-67
2023/11/11 13:21:35;;;;;;;;;;;;;;;;;;5085180;28;19938;-67
2023/11/11 13:24:01;;;;;;;;;;;;;;;;;;5071913;28;20365;-68
2023/11/11 13:26:27;;;;;;;;;;;;;;;;;;5087499;28;19963;-67
2023/11/11 13:28:53;;;;;;;;;;;;;;;;;;5057625;28;19916;-68
2023/11/11 13:31:20;;;;;;;;;;;;;;;;;;5079495;28;19916;-67
2023/11/11 13:33:47;;;;;;;;;;;;;;;;;;5077085;28;19947;-67
2023/11/11 13:36:16;;;;;;;;;;;;;;;;;;5088456;28;19916;-67
2023/11/11 13:38:43;;;;;;;;;;;;;;;;;;5082681;28;19969;-67
2023/11/11 13:41:11;;;;;;;;;;;;;;;;;;5066013;28;19923;-67
2023/11/11 13:43:37;;;;;;;;;;;;;;;;;;5081922;28;19946;-68
2023/11/11 13:46:03;;;;;;;;;;;;;;;;;;5091886;28;19908;-68
2023/11/11 13:48:29;;;;;;;;;;;;;;;;;;5089824;28;19908;-68
2023/11/11 13:50:55;;;;;;;;;;;;;;;;;;5088292;28;19913;-69
2023/11/11 13:53:21;;;;;;;;;;;;;;;;;;5084177;28;19942;-69
2023/11/11 13:55:47;;;;;;;;;;;;;;;;;;5080860;28;19978;-66
2023/11/11 13:58:13;;;;;;;;;;;;;;;;;;5072267;28;20008;-67
2023/11/11 14:00:40;;;;;;;;;;;;;;;;;;5076057;28;19920;-68
2023/11/11 14:03:07;;;;;;;;;;;;;;;;;;5083969;28;19916;-69
2023/11/11 14:05:33;;;;;;;;;;;;;;;;;;5078187;28;19931;-69
2023/11/11 14:08:01;;;;;;;;;;;;;;;;;;5091832;28;19916;-68
2023/11/11 14:10:27;;;;;;;;;;;;;;;;;;5075968;28;20326;-68
2023/11/11 14:12:55;;;;;;;;;;;;;;;;;;5080297;28;19942;-68
2023/11/11 14:15:22;;;;;;;;;;;;;;;;;;5071638;28;19967;-68
2023/11/11 14:17:49;;;;;;;;;;;;;;;;;;5071195;28;19927;-68
2023/11/11 14:20:14;;;;;;;;;;;;;;;;;;5076562;28;20012;-69
2023/11/11 14:22:41;;;;;;;;;;;;;;;;;;5075049;28;20010;-68
2023/11/11 14:25:09;;;;;;;;;;;;;;;;;;5089923;28;19912;-68
2023/11/11 14:27:35;;;;;;;;;;;;;;;;;;5082244;28;20604;-68
2023/11/11 14:30:01;;;;;;;;;;;;;;;;;;5089884;28;19916;-68
2023/11/11 14:32:26;;;;;;;;;;;;;;;;;;5081646;28;19931;-68
2023/11/11 14:34:52;;;;;;;;;;;;;;;;;;5085627;28;19999;-68
2023/11/11 14:37:18;;;;;;;;;;;;;;;;;;5095670;28;20369;-69
2023/11/11 14:39:45;;;;;;;;;;;;;;;;;;5095033;28;19923;-68
2023/11/11 14:42:14;;;;;;;;;;;;;;;;;;5095998;28;19915;-68
2023/11/11 14:44:40;;;;;;;;;;;;;;;;;;5079854;28;20433;-69
2023/11/11 14:47:09;;;;;;;;;;;;;;;;;;5065619;28;19924;-68
2023/11/11 14:49:35;;;;;;;;;;;;;;;;;;5073599;28;19940;-68
2023/11/11 14:52:01;;;;;;;;;;;;;;;;;;5087868;28;19908;-69
2023/11/11 14:54:29;;;;;;;;;;;;;;;;;;5076157;28;19962;-68
2023/11/11 14:56:55;;;;;;;;;;;;;;;;;;5082192;28;20453;-67
2023/11/11 14:59:21;;;;;;;;;;;;;;;;;;5077803;28;19959;-67
2023/11/11 15:01:47;;;;;;;;;;;;;;;;;;5070086;28;19912;-67
2023/11/11 15:04:14;;;;;;;;;;;;;;;;;;5087310;28;20375;-67
2023/11/11 15:06:40;;;;;;;;;;;;;;;;;;5079274;28;19944;-67
2023/11/11 15:09:06;;;;;;;;;;;;;;;;;;5073520;28;19984;-68
2023/11/11 15:11:32;;;;;;;;;;;;;;;;;;5076483;28;20411;-67
2023/11/11 15:14:03;;;;;;;;;;;;;;;;;;5079008;28;19918;-67
2023/11/11 15:16:28;;;;;;;;;;;;;;;;;;5074565;28;20387;-67
2023/11/11 15:18:54;;;;;;;;;;;;;;;;;;5074791;28;19951;-67
2023/11/11 15:21:26;;;;;;;;;;;;;;;;;;5074439;28;19916;-67
2023/11/11 15:23:52;;;;;;;;;;;;;;;;;;5077214;28;19915;-67
2023/11/11 15:26:19;;;;;;;;;;;;;;;;;;5085912;28;19924;-67
2023/11/11 15:28:44;;;;;;;;;;;;;;;;;;5084520;28;19921;-68
2023/11/11 15:31:12;;;;;;;;;;;;;;;;;;5076543;28;21549;-68
2023/11/11 15:33:38;;;;;;;;;;;;;;;;;;5078023;28;20424;-67
2023/11/11 15:36:05;;;;;;;;;;;;;;;;;;5074613;28;20007;-67
2023/11/11 15:38:31;;;;;;;;;;;;;;;;;;5078662;28;19912;-67
2023/11/11 15:40:57;;;;;;;;;;;;;;;;;;5085235;28;19970;-67
2023/11/11 15:43:23;;;;;;;;;;;;;;;;;;5078862;28;20248;-67
2023/11/11 15:45:49;;;;;;;;;;;;;;;;;;5079118;28;20396;-67
2023/11/11 15:48:17;;;;;;;;;;;;;;;;;;5080230;28;20352;-67
2023/11/11 15:50:43;;;;;;;;;;;;;;;;;;5063215;28;19913;-67
2023/11/11 15:53:09;;;;;;;;;;;;;;;;;;5090567;28;19912;-67
2023/11/11 15:55:35;;;;;;;;;;;;;;;;;;5093385;28;19947;-67
2023/11/11 15:58:01;;;;;;;;;;;;;;;;;;5074431;28;20327;-67
2023/11/11 16:00:27;;;;;;;;;;;;;;;;;;5075621;28;20007;-67
2023/11/11 16:02:53;;;;;;;;;;;;;;;;;;5078441;28;20387;-67
2023/11/11 16:05:19;;;;;;;;;;;;;;;;;;5088071;28;19916;-68
2023/11/11 16:07:45;;;;;;;;;;;;;;;;;;5085018;28;19958;-68
2023/11/11 16:10:11;;;;;;;;;;;;;;;;;;5077600;28;19913;-68
2023/11/11 16:12:37;;;;;;;;;;;;;;;;;;5082586;28;20272;-68
2023/11/11 16:15:04;;;;;;;;;;;;;;;;;;5085102;28;19913;-68
2023/11/11 16:17:30;;;;;;;;;;;;;;;;;;5070776;28;19913;-68
2023/11/11 16:19:59;;;;;;;;;;;;;;;;;;5053764;28;20015;-68
2023/11/11 16:22:26;;;;;;;;;;;;;;;;;;5085679;28;20367;-68
2023/11/11 16:24:54;;;;;;;;;;;;;;;;;;5069711;28;19999;-68
2023/11/11 16:27:20;;;;;;;;;;;;;;;;;;5077354;28;20288;-68
2023/11/11 16:29:46;;;;;;;;;;;;;;;;;;5077834;28;19963;-68
2023/11/11 16:32:12;;;;;;;;;;;;;;;;;;5083677;28;19944;-68
2023/11/11 16:34:37;;;;;;;;;;;;;;;;;;5077711;28;19959;-68
2023/11/11 16:37:03;;;;;;;;;;;;;;;;;;5077222;28;19948;-68
2023/11/11 16:39:29;;;;;;;;;;;;;;;;;;5080545;28;19962;-68